sensor_id;sensor_type;location;lat;lon;timestamp;P1;durP1;ratioP1;P2;durP2;ratioP2
58376;SDS011;58852;43.460;19.812;2023-04-06T00:01:40;8.65;;;6.53;;
58376;SDS011;58852;43.460;19.812;2023-04-06T00:04:06;9.27;;;6.95;;
58376;SDS011;58852;43.460;19.812;2023-04-06T00:06:32;7.43;;;6.47;;
58376;SDS011;58852;43.460;19.812;2023-04-06T00:08:59;8.55;;;7.07;;
58376;SDS011;58852;43.460;19.812;2023-04-06T00:11:25;7.10;;;6.40;;
58376;SDS011;58852;43.460;19.812;2023-04-06T00:13:51;7.85;;;6.70;;
58376;SDS011;58852;43.460;19.812;2023-04-06T00:16:17;7.18;;;6.20;;
58376;SDS011;58852;43.460;19.812;2023-04-06T00:18:44;8.48;;;7.05;;
58376;SDS011;58852;43.460;19.812;2023-04-06T00:21:13;8.73;;;6.50;;
58376;SDS011;58852;43.460;19.812;2023-04-06T00:23:39;9.10;;;6.72;;
58376;SDS011;58852;43.460;19.812;2023-04-06T00:26:05;9.82;;;6.80;;
58376;SDS011;58852;43.460;19.812;2023-04-06T00:33:43;8.60;;;7.70;;
58376;SDS011;58852;43.460;19.812;2023-04-06T00:36:09;7.82;;;6.45;;
58376;SDS011;58852;43.460;19.812;2023-04-06T00:38:35;8.73;;;6.68;;
58376;SDS011;58852;43.460;19.812;2023-04-06T00:41:02;8.82;;;7.28;;
58376;SDS011;58852;43.460;19.812;2023-04-06T00:53:52;10.00;;;7.03;;
58376;SDS011;58852;43.460;19.812;2023-04-06T00:56:19;8.00;;;6.70;;
58376;SDS011;58852;43.460;19.812;2023-04-06T00:58:46;7.32;;;6.20;;
58376;SDS011;58852;43.460;19.812;2023-04-06T01:01:12;8.52;;;7.15;;
58376;SDS011;58852;43.460;19.812;2023-04-06T01:08:49;8.60;;;7.30;;
58376;SDS011;58852;43.460;19.812;2023-04-06T01:11:17;9.50;;;7.05;;
58376;SDS011;58852;43.460;19.812;2023-04-06T01:13:43;8.57;;;6.85;;
58376;SDS011;58852;43.460;19.812;2023-04-06T01:16:09;9.98;;;6.30;;
58376;SDS011;58852;43.460;19.812;2023-04-06T01:18:35;8.10;;;6.35;;
58376;SDS011;58852;43.460;19.812;2023-04-06T01:21:03;8.55;;;6.78;;
58376;SDS011;58852;43.460;19.812;2023-04-06T01:26:04;8.80;;;7.20;;
58376;SDS011;58852;43.460;19.812;2023-04-06T01:31:07;11.60;;;6.40;;
58376;SDS011;58852;43.460;19.812;2023-04-06T01:33:33;8.52;;;6.45;;
58376;SDS011;58852;43.460;19.812;2023-04-06T01:35:59;8.15;;;6.15;;
58376;SDS011;58852;43.460;19.812;2023-04-06T01:38:26;10.10;;;6.78;;
58376;SDS011;58852;43.460;19.812;2023-04-06T01:40:52;8.57;;;7.22;;
58376;SDS011;58852;43.460;19.812;2023-04-06T01:43:18;9.90;;;6.88;;
58376;SDS011;58852;43.460;19.812;2023-04-06T01:45:45;8.65;;;6.55;;
58376;SDS011;58852;43.460;19.812;2023-04-06T01:48:11;8.55;;;7.65;;
58376;SDS011;58852;43.460;19.812;2023-04-06T01:50:37;7.85;;;6.50;;
58376;SDS011;58852;43.460;19.812;2023-04-06T01:53:03;8.18;;;6.25;;
58376;SDS011;58852;43.460;19.812;2023-04-06T01:55:29;7.68;;;6.15;;
58376;SDS011;58852;43.460;19.812;2023-04-06T01:57:55;8.38;;;7.38;;
58376;SDS011;58852;43.460;19.812;2023-04-06T02:00:21;8.10;;;6.65;;
58376;SDS011;58852;43.460;19.812;2023-04-06T02:02:47;8.07;;;6.53;;
58376;SDS011;58852;43.460;19.812;2023-04-06T02:05:13;8.88;;;6.20;;
58376;SDS011;58852;43.460;19.812;2023-04-06T02:07:40;9.27;;;6.32;;
58376;SDS011;58852;43.460;19.812;2023-04-06T02:10:10;8.32;;;6.32;;
58376;SDS011;58852;43.460;19.812;2023-04-06T02:12:36;9.25;;;7.20;;
58376;SDS011;58852;43.460;19.812;2023-04-06T02:15:02;9.07;;;6.22;;
58376;SDS011;58852;43.460;19.812;2023-04-06T02:17:29;8.65;;;6.53;;
58376;SDS011;58852;43.460;19.812;2023-04-06T02:19:55;8.55;;;6.25;;
58376;SDS011;58852;43.460;19.812;2023-04-06T02:22:21;11.10;;;7.13;;
58376;SDS011;58852;43.460;19.812;2023-04-06T02:24:47;9.93;;;6.18;;
58376;SDS011;58852;43.460;19.812;2023-04-06T02:27:14;8.40;;;6.30;;
58376;SDS011;58852;43.460;19.812;2023-04-06T02:29:40;9.30;;;6.93;;
58376;SDS011;58852;43.460;19.812;2023-04-06T02:32:06;9.52;;;6.28;;
58376;SDS011;58852;43.460;19.812;2023-04-06T02:34:32;7.45;;;6.40;;
58376;SDS011;58852;43.460;19.812;2023-04-06T02:36:58;8.27;;;6.07;;
58376;SDS011;58852;43.460;19.812;2023-04-06T02:39:24;7.65;;;5.75;;
58376;SDS011;58852;43.460;19.812;2023-04-06T02:41:50;9.57;;;6.57;;
58376;SDS011;58852;43.460;19.812;2023-04-06T02:44:16;8.13;;;6.50;;
58376;SDS011;58852;43.460;19.812;2023-04-06T02:46:42;8.13;;;5.85;;
58376;SDS011;58852;43.460;19.812;2023-04-06T02:49:08;7.25;;;6.38;;
58376;SDS011;58852;43.460;19.812;2023-04-06T02:51:34;9.68;;;5.82;;
58376;SDS011;58852;43.460;19.812;2023-04-06T02:54:00;6.75;;;5.68;;
58376;SDS011;58852;43.460;19.812;2023-04-06T02:56:26;8.38;;;6.80;;
58376;SDS011;58852;43.460;19.812;2023-04-06T03:04:03;7.82;;;5.95;;
58376;SDS011;58852;43.460;19.812;2023-04-06T03:06:29;7.95;;;5.82;;
58376;SDS011;58852;43.460;19.812;2023-04-06T03:08:55;8.27;;;6.93;;
58376;SDS011;58852;43.460;19.812;2023-04-06T03:11:21;7.05;;;5.90;;
58376;SDS011;58852;43.460;19.812;2023-04-06T03:13:47;7.28;;;6.00;;
58376;SDS011;58852;43.460;19.812;2023-04-06T03:18:49;8.55;;;6.57;;
58376;SDS011;58852;43.460;19.812;2023-04-06T03:21:15;9.77;;;6.43;;
58376;SDS011;58852;43.460;19.812;2023-04-06T03:23:41;8.40;;;6.72;;
58376;SDS011;58852;43.460;19.812;2023-04-06T03:26:07;9.68;;;6.55;;
58376;SDS011;58852;43.460;19.812;2023-04-06T03:28:33;7.55;;;6.10;;
58376;SDS011;58852;43.460;19.812;2023-04-06T03:30:59;7.35;;;6.00;;
58376;SDS011;58852;43.460;19.812;2023-04-06T03:33:25;8.00;;;5.93;;
58376;SDS011;58852;43.460;19.812;2023-04-06T03:35:54;7.65;;;5.82;;
58376;SDS011;58852;43.460;19.812;2023-04-06T03:38:21;7.50;;;5.95;;
58376;SDS011;58852;43.460;19.812;2023-04-06T03:40:47;8.52;;;6.35;;
58376;SDS011;58852;43.460;19.812;2023-04-06T03:43:13;7.53;;;6.53;;
58376;SDS011;58852;43.460;19.812;2023-04-06T03:53:33;10.10;;;6.65;;
58376;SDS011;58852;43.460;19.812;2023-04-06T03:56:01;7.43;;;6.35;;
58376;SDS011;58852;43.460;19.812;2023-04-06T03:58:27;7.13;;;6.28;;
58376;SDS011;58852;43.460;19.812;2023-04-06T04:00:53;8.00;;;6.55;;
58376;SDS011;58852;43.460;19.812;2023-04-06T04:06:01;8.32;;;6.18;;
58376;SDS011;58852;43.460;19.812;2023-04-06T04:08:27;8.40;;;6.22;;
58376;SDS011;58852;43.460;19.812;2023-04-06T04:10:53;7.80;;;6.82;;
58376;SDS011;58852;43.460;19.812;2023-04-06T04:13:19;7.90;;;6.90;;
58376;SDS011;58852;43.460;19.812;2023-04-06T04:15:45;8.27;;;6.53;;
58376;SDS011;58852;43.460;19.812;2023-04-06T04:18:12;9.15;;;7.18;;
58376;SDS011;58852;43.460;19.812;2023-04-06T04:20:39;8.75;;;7.55;;
58376;SDS011;58852;43.460;19.812;2023-04-06T04:23:05;8.85;;;6.85;;
58376;SDS011;58852;43.460;19.812;2023-04-06T04:25:31;10.52;;;7.55;;
58376;SDS011;58852;43.460;19.812;2023-04-06T04:27:57;9.52;;;6.47;;
58376;SDS011;58852;43.460;19.812;2023-04-06T04:30:23;13.00;;;7.53;;
58376;SDS011;58852;43.460;19.812;2023-04-06T04:32:49;7.97;;;7.13;;
58376;SDS011;58852;43.460;19.812;2023-04-06T04:35:15;8.20;;;6.88;;
58376;SDS011;58852;43.460;19.812;2023-04-06T04:37:41;7.13;;;6.43;;
58376;SDS011;58852;43.460;19.812;2023-04-06T04:40:07;7.53;;;6.15;;
58376;SDS011;58852;43.460;19.812;2023-04-06T04:42:33;9.00;;;6.57;;
58376;SDS011;58852;43.460;19.812;2023-04-06T04:44:59;10.20;;;7.40;;
58376;SDS011;58852;43.460;19.812;2023-04-06T04:47:25;9.25;;;7.60;;
58376;SDS011;58852;43.460;19.812;2023-04-06T04:49:51;9.98;;;7.55;;
58376;SDS011;58852;43.460;19.812;2023-04-06T04:52:17;8.95;;;6.57;;
58376;SDS011;58852;43.460;19.812;2023-04-06T04:54:43;9.48;;;7.45;;
58376;SDS011;58852;43.460;19.812;2023-04-06T04:57:11;9.07;;;6.63;;
58376;SDS011;58852;43.460;19.812;2023-04-06T04:59:37;10.13;;;7.60;;
58376;SDS011;58852;43.460;19.812;2023-04-06T05:02:03;7.97;;;6.68;;
58376;SDS011;58852;43.460;19.812;2023-04-06T05:04:30;11.25;;;8.23;;
58376;SDS011;58852;43.460;19.812;2023-04-06T05:07:06;9.05;;;7.32;;
58376;SDS011;58852;43.460;19.812;2023-04-06T05:09:32;8.80;;;7.13;;
58376;SDS011;58852;43.460;19.812;2023-04-06T05:11:58;9.32;;;7.03;;
58376;SDS011;58852;43.460;19.812;2023-04-06T05:14:25;10.35;;;7.57;;
58376;SDS011;58852;43.460;19.812;2023-04-06T05:16:51;8.90;;;7.05;;
58376;SDS011;58852;43.460;19.812;2023-04-06T05:19:17;7.43;;;6.72;;
58376;SDS011;58852;43.460;19.812;2023-04-06T05:21:43;9.60;;;7.97;;
58376;SDS011;58852;43.460;19.812;2023-04-06T05:26:44;9.05;;;6.80;;
58376;SDS011;58852;43.460;19.812;2023-04-06T05:29:11;8.73;;;6.65;;
58376;SDS011;58852;43.460;19.812;2023-04-06T05:31:37;8.30;;;7.05;;
58376;SDS011;58852;43.460;19.812;2023-04-06T05:34:03;12.05;;;7.30;;
58376;SDS011;58852;43.460;19.812;2023-04-06T05:36:29;9.68;;;7.57;;
58376;SDS011;58852;43.460;19.812;2023-04-06T05:38:57;9.23;;;7.15;;
58376;SDS011;58852;43.460;19.812;2023-04-06T05:41:23;18.80;;;8.60;;
58376;SDS011;58852;43.460;19.812;2023-04-06T05:43:50;13.00;;;7.13;;
58376;SDS011;58852;43.460;19.812;2023-04-06T05:46:16;25.10;;;9.23;;
58376;SDS011;58852;43.460;19.812;2023-04-06T05:48:42;15.50;;;9.35;;
58376;SDS011;58852;43.460;19.812;2023-04-06T05:51:08;13.45;;;8.15;;
58376;SDS011;58852;43.460;19.812;2023-04-06T05:53:34;12.77;;;8.40;;
58376;SDS011;58852;43.460;19.812;2023-04-06T05:56:01;19.48;;;7.85;;
58376;SDS011;58852;43.460;19.812;2023-04-06T05:58:27;16.30;;;7.68;;
58376;SDS011;58852;43.460;19.812;2023-04-06T06:00:57;18.98;;;8.63;;
58376;SDS011;58852;43.460;19.812;2023-04-06T06:03:23;18.95;;;8.82;;
58376;SDS011;58852;43.460;19.812;2023-04-06T06:05:49;18.63;;;8.60;;
58376;SDS011;58852;43.460;19.812;2023-04-06T06:08:15;20.38;;;9.60;;
58376;SDS011;58852;43.460;19.812;2023-04-06T06:10:41;15.23;;;9.52;;
58376;SDS011;58852;43.460;19.812;2023-04-06T06:13:08;16.55;;;8.88;;
58376;SDS011;58852;43.460;19.812;2023-04-06T06:15:34;13.93;;;7.72;;
58376;SDS011;58852;43.460;19.812;2023-04-06T06:18:00;18.00;;;8.65;;
58376;SDS011;58852;43.460;19.812;2023-04-06T06:20:26;18.17;;;8.02;;
58376;SDS011;58852;43.460;19.812;2023-04-06T06:22:52;11.48;;;7.53;;
58376;SDS011;58852;43.460;19.812;2023-04-06T06:25:18;14.65;;;7.32;;
58376;SDS011;58852;43.460;19.812;2023-04-06T06:27:44;15.95;;;7.70;;
58376;SDS011;58852;43.460;19.812;2023-04-06T06:30:11;15.27;;;7.25;;
58376;SDS011;58852;43.460;19.812;2023-04-06T06:32:37;16.27;;;8.98;;
58376;SDS011;58852;43.460;19.812;2023-04-06T06:35:03;14.10;;;10.02;;
58376;SDS011;58852;43.460;19.812;2023-04-06T06:37:29;17.30;;;8.32;;
58376;SDS011;58852;43.460;19.812;2023-04-06T06:39:55;18.85;;;8.18;;
58376;SDS011;58852;43.460;19.812;2023-04-06T06:42:21;11.98;;;8.65;;
58376;SDS011;58852;43.460;19.812;2023-04-06T06:44:50;16.60;;;9.70;;
58376;SDS011;58852;43.460;19.812;2023-04-06T06:47:16;14.57;;;8.27;;
58376;SDS011;58852;43.460;19.812;2023-04-06T06:49:42;14.75;;;8.82;;
58376;SDS011;58852;43.460;19.812;2023-04-06T06:52:08;13.77;;;9.27;;
58376;SDS011;58852;43.460;19.812;2023-04-06T06:54:34;11.13;;;7.95;;
58376;SDS011;58852;43.460;19.812;2023-04-06T06:57:00;15.20;;;9.80;;
58376;SDS011;58852;43.460;19.812;2023-04-06T06:59:27;19.40;;;9.50;;
58376;SDS011;58852;43.460;19.812;2023-04-06T07:01:53;18.25;;;9.77;;
58376;SDS011;58852;43.460;19.812;2023-04-06T07:04:19;27.90;;;10.60;;
58376;SDS011;58852;43.460;19.812;2023-04-06T07:06:45;33.38;;;10.93;;
58376;SDS011;58852;43.460;19.812;2023-04-06T07:09:14;36.20;;;11.02;;
58376;SDS011;58852;43.460;19.812;2023-04-06T07:11:40;32.72;;;10.23;;
58376;SDS011;58852;43.460;19.812;2023-04-06T07:14:06;19.73;;;10.63;;
58376;SDS011;58852;43.460;19.812;2023-04-06T07:16:32;24.35;;;12.02;;
58376;SDS011;58852;43.460;19.812;2023-04-06T07:18:58;16.95;;;9.77;;
58376;SDS011;58852;43.460;19.812;2023-04-06T07:21:24;18.45;;;10.93;;
58376;SDS011;58852;43.460;19.812;2023-04-06T07:23:51;16.65;;;11.45;;
58376;SDS011;58852;43.460;19.812;2023-04-06T07:26:17;11.38;;;9.70;;
58376;SDS011;58852;43.460;19.812;2023-04-06T07:28:43;19.90;;;10.13;;
58376;SDS011;58852;43.460;19.812;2023-04-06T07:31:09;21.65;;;12.10;;
58376;SDS011;58852;43.460;19.812;2023-04-06T07:33:35;17.83;;;11.40;;
58376;SDS011;58852;43.460;19.812;2023-04-06T07:36:01;17.75;;;11.18;;
58376;SDS011;58852;43.460;19.812;2023-04-06T07:38:27;18.13;;;10.10;;
58376;SDS011;58852;43.460;19.812;2023-04-06T07:40:53;12.75;;;10.30;;
58376;SDS011;58852;43.460;19.812;2023-04-06T07:43:19;18.70;;;10.50;;
58376;SDS011;58852;43.460;19.812;2023-04-06T07:45:49;15.13;;;10.68;;
58376;SDS011;58852;43.460;19.812;2023-04-06T07:48:15;13.85;;;11.05;;
58376;SDS011;58852;43.460;19.812;2023-04-06T07:50:41;20.20;;;11.57;;
58376;SDS011;58852;43.460;19.812;2023-04-06T07:53:08;17.35;;;9.80;;
58376;SDS011;58852;43.460;19.812;2023-04-06T07:55:34;18.65;;;11.20;;
58376;SDS011;58852;43.460;19.812;2023-04-06T07:58:00;17.60;;;10.27;;
58376;SDS011;58852;43.460;19.812;2023-04-06T08:00:26;14.98;;;9.50;;
58376;SDS011;58852;43.460;19.812;2023-04-06T08:02:52;11.93;;;9.48;;
58376;SDS011;58852;43.460;19.812;2023-04-06T08:05:18;15.93;;;11.10;;
58376;SDS011;58852;43.460;19.812;2023-04-06T08:07:44;17.80;;;12.40;;
58376;SDS011;58852;43.460;19.812;2023-04-06T08:10:10;15.93;;;10.40;;
58376;SDS011;58852;43.460;19.812;2023-04-06T08:12:36;14.40;;;10.27;;
58376;SDS011;58852;43.460;19.812;2023-04-06T08:15:03;13.90;;;9.98;;
58376;SDS011;58852;43.460;19.812;2023-04-06T08:17:29;16.92;;;10.45;;
58376;SDS011;58852;43.460;19.812;2023-04-06T08:19:57;14.07;;;9.93;;
58376;SDS011;58852;43.460;19.812;2023-04-06T08:22:23;14.88;;;10.70;;
58376;SDS011;58852;43.460;19.812;2023-04-06T08:24:50;16.40;;;10.73;;
58376;SDS011;58852;43.460;19.812;2023-04-06T08:27:16;15.93;;;11.13;;
58376;SDS011;58852;43.460;19.812;2023-04-06T08:29:42;13.65;;;10.88;;
58376;SDS011;58852;43.460;19.812;2023-04-06T08:32:09;12.20;;;10.10;;
58376;SDS011;58852;43.460;19.812;2023-04-06T08:34:35;20.42;;;10.10;;
58376;SDS011;58852;43.460;19.812;2023-04-06T08:37:01;15.93;;;9.38;;
58376;SDS011;58852;43.460;19.812;2023-04-06T08:39:27;13.77;;;10.35;;
58376;SDS011;58852;43.460;19.812;2023-04-06T08:41:55;11.60;;;9.38;;
58376;SDS011;58852;43.460;19.812;2023-04-06T08:44:22;13.25;;;9.40;;
58376;SDS011;58852;43.460;19.812;2023-04-06T08:46:49;13.07;;;10.45;;
58376;SDS011;58852;43.460;19.812;2023-04-06T08:49:15;14.75;;;9.73;;
58376;SDS011;58852;43.460;19.812;2023-04-06T08:51:42;13.90;;;10.30;;
58376;SDS011;58852;43.460;19.812;2023-04-06T08:54:08;13.68;;;9.55;;
58376;SDS011;58852;43.460;19.812;2023-04-06T08:56:36;13.32;;;9.90;;
58376;SDS011;58852;43.460;19.812;2023-04-06T08:59:03;12.52;;;9.57;;
58376;SDS011;58852;43.460;19.812;2023-04-06T09:01:30;16.63;;;9.55;;
58376;SDS011;58852;43.460;19.812;2023-04-06T09:03:57;13.68;;;8.85;;
58376;SDS011;58852;43.460;19.812;2023-04-06T09:06:24;15.93;;;10.00;;
58376;SDS011;58852;43.460;19.812;2023-04-06T09:08:51;13.60;;;10.05;;
58376;SDS011;58852;43.460;19.812;2023-04-06T09:11:17;10.98;;;8.57;;
58376;SDS011;58852;43.460;19.812;2023-04-06T09:13:47;14.45;;;10.73;;
58376;SDS011;58852;43.460;19.812;2023-04-06T09:16:14;11.75;;;10.52;;
58376;SDS011;58852;43.460;19.812;2023-04-06T09:18:40;9.73;;;8.70;;
58376;SDS011;58852;43.460;19.812;2023-04-06T09:21:07;12.57;;;8.85;;
58376;SDS011;58852;43.460;19.812;2023-04-06T09:23:33;11.82;;;9.63;;
58376;SDS011;58852;43.460;19.812;2023-04-06T09:26:04;10.57;;;8.55;;
58376;SDS011;58852;43.460;19.812;2023-04-06T09:28:40;11.63;;;9.02;;
58376;SDS011;58852;43.460;19.812;2023-04-06T09:31:06;12.23;;;9.82;;
58376;SDS011;58852;43.460;19.812;2023-04-06T09:33:36;12.07;;;8.85;;
58376;SDS011;58852;43.460;19.812;2023-04-06T09:36:03;12.50;;;9.02;;
58376;SDS011;58852;43.460;19.812;2023-04-06T09:38:29;11.90;;;8.77;;
58376;SDS011;58852;43.460;19.812;2023-04-06T09:40:55;10.70;;;9.02;;
58376;SDS011;58852;43.460;19.812;2023-04-06T09:43:27;10.13;;;8.63;;
58376;SDS011;58852;43.460;19.812;2023-04-06T09:45:54;10.85;;;8.85;;
58376;SDS011;58852;43.460;19.812;2023-04-06T09:48:20;10.75;;;8.00;;
58376;SDS011;58852;43.460;19.812;2023-04-06T09:50:50;9.18;;;8.05;;
58376;SDS011;58852;43.460;19.812;2023-04-06T09:53:19;12.95;;;8.27;;
58376;SDS011;58852;43.460;19.812;2023-04-06T09:55:45;10.95;;;8.60;;
58376;SDS011;58852;43.460;19.812;2023-04-06T09:58:18;9.73;;;7.68;;
58376;SDS011;58852;43.460;19.812;2023-04-06T10:00:53;10.02;;;7.93;;
58376;SDS011;58852;43.460;19.812;2023-04-06T10:06:03;11.38;;;8.50;;
58376;SDS011;58852;43.460;19.812;2023-04-06T10:08:30;13.02;;;8.00;;
58376;SDS011;58852;43.460;19.812;2023-04-06T10:10:58;13.25;;;8.65;;
58376;SDS011;58852;43.460;19.812;2023-04-06T10:13:25;11.32;;;7.50;;
58376;SDS011;58852;43.460;19.812;2023-04-06T10:15:54;9.93;;;7.18;;
58376;SDS011;58852;43.460;19.812;2023-04-06T10:18:20;9.82;;;7.50;;
58376;SDS011;58852;43.460;19.812;2023-04-06T10:20:48;9.40;;;7.68;;
58376;SDS011;58852;43.460;19.812;2023-04-06T10:26:01;13.43;;;8.13;;
58376;SDS011;58852;43.460;19.812;2023-04-06T10:28:32;11.48;;;7.20;;
58376;SDS011;58852;43.460;19.812;2023-04-06T10:31:00;10.93;;;8.68;;
58376;SDS011;58852;43.460;19.812;2023-04-06T10:33:27;10.43;;;7.45;;
58376;SDS011;58852;43.460;19.812;2023-04-06T10:35:53;9.63;;;7.55;;
58376;SDS011;58852;43.460;19.812;2023-04-06T10:38:36;11.32;;;7.25;;
58376;SDS011;58852;43.460;19.812;2023-04-06T10:41:06;11.77;;;7.05;;
58376;SDS011;58852;43.460;19.812;2023-04-06T10:43:33;7.97;;;6.43;;
58376;SDS011;58852;43.460;19.812;2023-04-06T10:46:03;9.23;;;7.55;;
58376;SDS011;58852;43.460;19.812;2023-04-06T10:48:37;8.30;;;6.63;;
58376;SDS011;58852;43.460;19.812;2023-04-06T10:51:13;9.25;;;6.95;;
58376;SDS011;58852;43.460;19.812;2023-04-06T10:53:43;12.02;;;7.15;;
58376;SDS011;58852;43.460;19.812;2023-04-06T10:56:11;9.15;;;6.03;;
58376;SDS011;58852;43.460;19.812;2023-04-06T10:58:37;10.85;;;6.75;;
58376;SDS011;58852;43.460;19.812;2023-04-06T11:01:03;9.30;;;6.53;;
58376;SDS011;58852;43.460;19.812;2023-04-06T11:03:30;8.77;;;6.28;;
58376;SDS011;58852;43.460;19.812;2023-04-06T11:05:57;9.90;;;7.50;;
58376;SDS011;58852;43.460;19.812;2023-04-06T11:08:27;8.05;;;5.72;;
58376;SDS011;58852;43.460;19.812;2023-04-06T11:13:44;8.25;;;6.78;;
58376;SDS011;58852;43.460;19.812;2023-04-06T11:19:02;11.02;;;6.15;;
58376;SDS011;58852;43.460;19.812;2023-04-06T11:21:36;9.25;;;6.38;;
58376;SDS011;58852;43.460;19.812;2023-04-06T11:24:13;11.15;;;6.95;;
58376;SDS011;58852;43.460;19.812;2023-04-06T11:29:24;8.35;;;6.65;;
58376;SDS011;58852;43.460;19.812;2023-04-06T11:31:52;9.70;;;6.43;;
58376;SDS011;58852;43.460;19.812;2023-04-06T11:34:22;9.05;;;6.60;;
58376;SDS011;58852;43.460;19.812;2023-04-06T11:36:49;11.77;;;6.70;;
58376;SDS011;58852;43.460;19.812;2023-04-06T11:39:20;9.70;;;6.93;;
58376;SDS011;58852;43.460;19.812;2023-04-06T11:41:50;8.65;;;6.93;;
58376;SDS011;58852;43.460;19.812;2023-04-06T11:44:28;38.97;;;9.45;;
58376;SDS011;58852;43.460;19.812;2023-04-06T11:46:56;12.38;;;7.63;;
58376;SDS011;58852;43.460;19.812;2023-04-06T11:49:26;17.77;;;7.30;;
58376;SDS011;58852;43.460;19.812;2023-04-06T11:51:53;9.95;;;7.78;;
58376;SDS011;58852;43.460;19.812;2023-04-06T11:54:29;12.73;;;6.60;;
58376;SDS011;58852;43.460;19.812;2023-04-06T11:56:55;9.02;;;6.32;;
58376;SDS011;58852;43.460;19.812;2023-04-06T11:59:21;10.32;;;6.90;;
58376;SDS011;58852;43.460;19.812;2023-04-06T12:01:48;10.40;;;6.90;;
58376;SDS011;58852;43.460;19.812;2023-04-06T12:04:14;13.80;;;6.50;;
58376;SDS011;58852;43.460;19.812;2023-04-06T12:06:40;11.65;;;6.57;;
58376;SDS011;58852;43.460;19.812;2023-04-06T12:09:06;9.95;;;6.43;;
58376;SDS011;58852;43.460;19.812;2023-04-06T12:11:32;13.75;;;5.88;;
58376;SDS011;58852;43.460;19.812;2023-04-06T12:13:58;10.55;;;6.50;;
58376;SDS011;58852;43.460;19.812;2023-04-06T12:16:26;11.20;;;6.75;;
58376;SDS011;58852;43.460;19.812;2023-04-06T12:18:52;13.95;;;6.35;;
58376;SDS011;58852;43.460;19.812;2023-04-06T12:21:18;9.48;;;5.72;;
58376;SDS011;58852;43.460;19.812;2023-04-06T12:23:45;11.82;;;6.88;;
58376;SDS011;58852;43.460;19.812;2023-04-06T12:26:11;8.10;;;6.07;;
58376;SDS011;58852;43.460;19.812;2023-04-06T12:28:37;11.80;;;6.72;;
58376;SDS011;58852;43.460;19.812;2023-04-06T12:31:03;9.63;;;6.40;;
58376;SDS011;58852;43.460;19.812;2023-04-06T12:33:29;8.00;;;6.45;;
58376;SDS011;58852;43.460;19.812;2023-04-06T12:35:55;8.63;;;6.72;;
58376;SDS011;58852;43.460;19.812;2023-04-06T12:38:21;11.10;;;6.88;;
58376;SDS011;58852;43.460;19.812;2023-04-06T12:40:47;8.73;;;6.13;;
58376;SDS011;58852;43.460;19.812;2023-04-06T12:43:13;9.63;;;5.97;;
58376;SDS011;58852;43.460;19.812;2023-04-06T12:45:39;9.25;;;6.05;;
58376;SDS011;58852;43.460;19.812;2023-04-06T12:48:06;8.73;;;6.18;;
58376;SDS011;58852;43.460;19.812;2023-04-06T12:50:32;9.98;;;5.68;;
58376;SDS011;58852;43.460;19.812;2023-04-06T12:52:58;10.43;;;5.85;;
58376;SDS011;58852;43.460;19.812;2023-04-06T12:55:24;13.45;;;8.07;;
58376;SDS011;58852;43.460;19.812;2023-04-06T12:57:50;10.73;;;7.22;;
58376;SDS011;58852;43.460;19.812;2023-04-06T13:00:16;13.50;;;6.15;;
58376;SDS011;58852;43.460;19.812;2023-04-06T13:02:42;9.40;;;6.70;;
58376;SDS011;58852;43.460;19.812;2023-04-06T13:05:12;10.20;;;5.97;;
58376;SDS011;58852;43.460;19.812;2023-04-06T13:07:38;11.05;;;6.75;;
58376;SDS011;58852;43.460;19.812;2023-04-06T13:10:04;34.78;;;7.60;;
58376;SDS011;58852;43.460;19.812;2023-04-06T13:12:30;8.93;;;5.85;;
58376;SDS011;58852;43.460;19.812;2023-04-06T13:14:56;8.57;;;6.25;;
58376;SDS011;58852;43.460;19.812;2023-04-06T13:17:26;14.93;;;5.75;;
58376;SDS011;58852;43.460;19.812;2023-04-06T13:19:52;9.48;;;5.97;;
58376;SDS011;58852;43.460;19.812;2023-04-06T13:22:18;8.02;;;5.88;;
58376;SDS011;58852;43.460;19.812;2023-04-06T13:24:45;10.68;;;6.70;;
58376;SDS011;58852;43.460;19.812;2023-04-06T13:27:11;8.80;;;5.93;;
58376;SDS011;58852;43.460;19.812;2023-04-06T13:29:37;9.32;;;5.97;;
58376;SDS011;58852;43.460;19.812;2023-04-06T13:32:03;8.75;;;6.47;;
58376;SDS011;58852;43.460;19.812;2023-04-06T13:34:30;8.07;;;5.78;;
58376;SDS011;58852;43.460;19.812;2023-04-06T13:36:56;11.93;;;6.68;;
58376;SDS011;58852;43.460;19.812;2023-04-06T13:39:22;10.57;;;6.45;;
58376;SDS011;58852;43.460;19.812;2023-04-06T13:41:48;8.10;;;5.85;;
58376;SDS011;58852;43.460;19.812;2023-04-06T13:44:14;9.10;;;6.45;;
58376;SDS011;58852;43.460;19.812;2023-04-06T13:46:41;7.38;;;5.60;;
58376;SDS011;58852;43.460;19.812;2023-04-06T13:49:08;8.18;;;5.65;;
58376;SDS011;58852;43.460;19.812;2023-04-06T13:51:34;11.40;;;6.32;;
58376;SDS011;58852;43.460;19.812;2023-04-06T13:54:00;8.05;;;5.57;;
58376;SDS011;58852;43.460;19.812;2023-04-06T13:56:26;7.13;;;5.30;;
58376;SDS011;58852;43.460;19.812;2023-04-06T13:58:53;8.63;;;6.20;;
58376;SDS011;58852;43.460;19.812;2023-04-06T14:01:20;9.90;;;5.55;;
58376;SDS011;58852;43.460;19.812;2023-04-06T14:03:47;7.30;;;5.70;;
58376;SDS011;58852;43.460;19.812;2023-04-06T14:06:14;11.55;;;6.75;;
58376;SDS011;58852;43.460;19.812;2023-04-06T14:08:40;9.13;;;5.95;;
58376;SDS011;58852;43.460;19.812;2023-04-06T14:11:07;7.53;;;5.88;;
58376;SDS011;58852;43.460;19.812;2023-04-06T14:13:36;11.60;;;6.20;;
58376;SDS011;58852;43.460;19.812;2023-04-06T14:16:03;12.20;;;6.15;;
58376;SDS011;58852;43.460;19.812;2023-04-06T14:18:29;7.32;;;5.97;;
58376;SDS011;58852;43.460;19.812;2023-04-06T14:20:56;7.43;;;5.40;;
58376;SDS011;58852;43.460;19.812;2023-04-06T14:23:22;8.68;;;6.28;;
58376;SDS011;58852;43.460;19.812;2023-04-06T14:25:51;10.32;;;7.03;;
58376;SDS011;58852;43.460;19.812;2023-04-06T14:28:17;9.68;;;7.38;;
58376;SDS011;58852;43.460;19.812;2023-04-06T14:30:44;8.50;;;5.85;;
58376;SDS011;58852;43.460;19.812;2023-04-06T14:33:10;7.47;;;6.13;;
58376;SDS011;58852;43.460;19.812;2023-04-06T14:35:40;7.82;;;6.38;;
58376;SDS011;58852;43.460;19.812;2023-04-06T14:38:06;9.07;;;6.07;;
58376;SDS011;58852;43.460;19.812;2023-04-06T14:40:34;10.57;;;7.70;;
58376;SDS011;58852;43.460;19.812;2023-04-06T14:43:01;10.27;;;6.63;;
58376;SDS011;58852;43.460;19.812;2023-04-06T14:45:27;9.13;;;5.68;;
58376;SDS011;58852;43.460;19.812;2023-04-06T14:47:53;7.07;;;5.88;;
58376;SDS011;58852;43.460;19.812;2023-04-06T14:50:19;7.05;;;5.68;;
58376;SDS011;58852;43.460;19.812;2023-04-06T14:52:45;8.30;;;6.03;;
58376;SDS011;58852;43.460;19.812;2023-04-06T14:55:11;9.60;;;5.68;;
58376;SDS011;58852;43.460;19.812;2023-04-06T14:57:38;7.55;;;5.78;;
58376;SDS011;58852;43.460;19.812;2023-04-06T15:00:05;10.95;;;5.93;;
58376;SDS011;58852;43.460;19.812;2023-04-06T15:02:33;10.73;;;6.10;;
58376;SDS011;58852;43.460;19.812;2023-04-06T15:04:59;26.73;;;7.18;;
58376;SDS011;58852;43.460;19.812;2023-04-06T15:07:25;10.40;;;5.80;;
58376;SDS011;58852;43.460;19.812;2023-04-06T15:09:51;10.00;;;6.15;;
58376;SDS011;58852;43.460;19.812;2023-04-06T15:14:52;7.53;;;5.35;;
58376;SDS011;58852;43.460;19.812;2023-04-06T15:17:18;12.27;;;6.60;;
58376;SDS011;58852;43.460;19.812;2023-04-06T15:19:45;7.85;;;5.40;;
58376;SDS011;58852;43.460;19.812;2023-04-06T15:22:11;10.25;;;5.55;;
58376;SDS011;58852;43.460;19.812;2023-04-06T15:24:37;12.02;;;5.82;;
58376;SDS011;58852;43.460;19.812;2023-04-06T15:27:03;10.27;;;5.80;;